createdAt,value
2023-04-16T00:01:20.612Z,94.85
2023-04-16T00:02:23.781Z,94.70
2023-04-16T00:04:00.539Z,94.68
2023-04-16T00:05:04.599Z,94.86
2023-04-16T00:06:07.445Z,94.86
2023-04-16T00:07:42.098Z,94.80
2023-04-16T00:08:44.843Z,94.80
2023-04-16T00:09:48.338Z,94.84
2023-04-16T00:11:23.002Z,94.84
2023-04-16T00:12:25.975Z,94.84
2023-04-16T00:13:28.865Z,95.03
2023-04-16T00:15:03.587Z,95.07
2023-04-16T00:16:06.474Z,95.05
2023-04-16T00:17:10.053Z,95.05
2023-04-16T00:18:44.913Z,95.06
2023-04-16T00:19:47.906Z,95.08
2023-04-16T00:20:50.650Z,95.08
2023-04-16T00:22:25.151Z,95.33
2023-04-16T00:23:28.038Z,95.07
2023-04-16T00:24:30.813Z,95.06
2023-04-16T00:26:05.764Z,95.27
2023-04-16T00:27:08.813Z,95.48
2023-04-16T00:28:11.666Z,95.46
2023-04-16T00:29:46.334Z,95.27
2023-04-16T00:30:49.303Z,95.24
2023-04-16T00:31:52.573Z,95.25
2023-04-16T00:33:27.196Z,95.23
2023-04-16T00:34:29.954Z,95.20
2023-04-16T00:35:32.896Z,95.20
2023-04-16T00:37:07.455Z,95.19
2023-04-16T00:38:10.166Z,95.39
2023-04-16T00:39:13.326Z,95.39
2023-04-16T00:40:47.718Z,95.31
2023-04-16T00:41:50.537Z,95.37
2023-04-16T00:42:53.499Z,95.24
2023-04-16T00:44:28.420Z,95.27
2023-04-16T00:45:31.341Z,95.28
2023-04-16T00:46:34.645Z,95.27
2023-04-16T00:48:09.887Z,95.29
2023-04-16T00:49:13.006Z,95.38
2023-04-16T00:50:15.938Z,95.35
2023-04-16T00:51:50.485Z,95.34
2023-04-16T00:52:53.235Z,95.37
2023-04-16T00:53:56.043Z,95.44
2023-04-16T00:55:30.597Z,95.53
2023-04-16T00:56:33.397Z,95.54
2023-04-16T00:57:36.267Z,95.62
2023-04-16T00:59:10.995Z,95.53
2023-04-16T01:00:17.517Z,95.58
2023-04-16T01:01:20.516Z,95.47
2023-04-16T01:02:24.257Z,95.57
2023-04-16T01:04:00.402Z,95.44
2023-04-16T01:05:04.049Z,95.49
2023-04-16T01:06:06.883Z,95.51
2023-04-16T01:07:41.495Z,95.51
2023-04-16T01:08:44.153Z,95.68
2023-04-16T01:09:47.069Z,95.79
2023-04-16T01:11:21.707Z,95.74
2023-04-16T01:12:24.514Z,95.81
2023-04-16T01:13:27.445Z,95.79
2023-04-16T01:15:01.882Z,95.70
2023-04-16T01:16:04.820Z,95.64
2023-04-16T01:17:08.183Z,95.72
2023-04-16T01:18:43.253Z,95.74
2023-04-16T01:19:46.184Z,95.82
2023-04-16T01:20:49.183Z,95.91
2023-04-16T01:22:23.961Z,95.91
2023-04-16T01:23:26.869Z,95.91
2023-04-16T01:24:29.961Z,95.91
2023-04-16T01:26:04.699Z,95.78
2023-04-16T01:27:07.427Z,95.79
2023-04-16T01:28:10.131Z,95.74
2023-04-16T01:29:44.608Z,95.74
2023-04-16T01:30:47.351Z,95.81
2023-04-16T01:31:50.652Z,95.82
2023-04-16T01:33:25.440Z,95.76
2023-04-16T01:34:28.347Z,95.81
2023-04-16T01:35:31.406Z,95.86
2023-04-16T01:37:06.082Z,95.83
2023-04-16T01:38:09.030Z,95.79
2023-04-16T01:39:12.086Z,95.75
2023-04-16T01:40:46.856Z,95.76
2023-04-16T01:41:49.707Z,95.74
2023-04-16T01:42:52.575Z,95.71
2023-04-16T01:44:27.130Z,95.76
2023-04-16T01:45:29.897Z,95.74
2023-04-16T01:46:32.753Z,95.76
2023-04-16T01:48:07.884Z,95.73
2023-04-16T01:49:10.883Z,95.82
2023-04-16T01:50:14.014Z,95.79
2023-04-16T01:51:49.003Z,95.81
2023-04-16T01:52:51.880Z,95.91
2023-04-16T01:53:54.662Z,96.04
2023-04-16T01:55:29.325Z,96.05
2023-04-16T01:56:32.235Z,96.10
2023-04-16T01:57:35.130Z,96.09
2023-04-16T01:59:09.823Z,95.99
2023-04-16T02:00:18.178Z,95.91
2023-04-16T02:01:21.207Z,95.96
2023-04-16T02:02:24.320Z,95.99
2023-04-16T02:04:00.535Z,95.93
2023-04-16T02:05:03.553Z,95.97
2023-04-16T02:06:06.328Z,95.91
2023-04-16T02:07:40.966Z,95.93
2023-04-16T02:08:43.816Z,95.95
2023-04-16T02:09:46.871Z,95.97
2023-04-16T02:11:21.502Z,95.95
2023-04-16T02:12:24.475Z,95.93
2023-04-16T02:13:27.362Z,96.01
2023-04-16T02:15:02.214Z,96.03
2023-04-16T02:16:05.159Z,96.00
2023-04-16T02:17:08.417Z,96.11
2023-04-16T02:18:43.064Z,96.08
2023-04-16T02:19:45.940Z,96.14
2023-04-16T02:20:48.765Z,96.17
2023-04-16T02:22:23.218Z,96.15
2023-04-16T02:23:26.014Z,96.11
2023-04-16T02:24:28.933Z,96.19
2023-04-16T02:26:03.721Z,96.13
2023-04-16T02:27:06.623Z,96.15
2023-04-16T02:28:09.619Z,96.13
2023-04-16T02:29:44.418Z,96.09
2023-04-16T02:30:47.454Z,96.08
2023-04-16T02:31:50.594Z,96.13
2023-04-16T02:33:25.692Z,96.06
2023-04-16T02:34:28.599Z,96.00
2023-04-16T02:35:31.415Z,96.01
2023-04-16T02:37:05.866Z,96.09
2023-04-16T02:38:08.654Z,96.08
2023-04-16T02:39:11.744Z,96.08
2023-04-16T02:40:46.374Z,96.17
2023-04-16T02:41:49.306Z,96.24
2023-04-16T02:42:52.242Z,96.09
2023-04-16T02:44:27.002Z,96.13
2023-04-16T02:45:29.900Z,96.10
2023-04-16T02:46:33.301Z,96.11
2023-04-16T02:48:08.201Z,96.10
2023-04-16T02:49:11.200Z,96.12
2023-04-16T02:50:14.134Z,96.08
2023-04-16T02:51:48.684Z,96.13
2023-04-16T02:52:51.434Z,96.14
2023-04-16T02:53:54.228Z,96.13
2023-04-16T02:55:28.736Z,96.03
2023-04-16T02:56:31.451Z,96.04
2023-04-16T02:57:34.300Z,96.04
2023-04-16T02:59:09.331Z,96.01
2023-04-16T03:00:17.184Z,96.00
2023-04-16T03:01:20.123Z,96.02
2023-04-16T03:02:24.081Z,96.04
2023-04-16T03:03:59.434Z,95.99
2023-04-16T03:05:03.178Z,95.97
2023-04-16T03:06:05.875Z,95.94
2023-04-16T03:07:40.355Z,95.92
2023-04-16T03:08:43.124Z,95.89
2023-04-16T03:09:46.128Z,95.89
2023-04-16T03:11:20.573Z,96.00
2023-04-16T03:12:23.384Z,95.96
2023-04-16T03:13:26.214Z,96.00
2023-04-16T03:15:00.907Z,95.98
2023-04-16T03:16:03.932Z,95.95
2023-04-16T03:17:07.175Z,95.89
2023-04-16T03:18:42.231Z,95.92
2023-04-16T03:19:45.159Z,95.84
2023-04-16T03:20:48.130Z,95.86
2023-04-16T03:22:22.775Z,95.79
2023-04-16T03:23:25.584Z,95.81
2023-04-16T03:24:28.412Z,95.77
2023-04-16T03:26:03.138Z,95.77
2023-04-16T03:27:05.966Z,95.79
2023-04-16T03:28:08.665Z,95.78
2023-04-16T03:29:43.144Z,95.77
2023-04-16T03:30:46.047Z,95.75
2023-04-16T03:31:49.135Z,95.72
2023-04-16T03:33:23.827Z,95.66
2023-04-16T03:34:26.683Z,95.67
2023-04-16T03:35:29.558Z,95.64
2023-04-16T03:37:04.231Z,95.61
2023-04-16T03:38:07.049Z,95.58
2023-04-16T03:39:10.117Z,95.59
2023-04-16T03:40:45.056Z,95.63
2023-04-16T03:41:47.908Z,95.58
2023-04-16T03:42:50.880Z,95.54
2023-04-16T03:44:25.637Z,95.54
2023-04-16T03:45:28.308Z,95.56
2023-04-16T03:46:31.174Z,95.49
2023-04-16T03:48:06.228Z,95.45
2023-04-16T03:49:09.646Z,95.45
2023-04-16T03:50:12.602Z,95.46
2023-04-16T03:51:47.280Z,95.46
2023-04-16T03:52:50.164Z,95.51
2023-04-16T03:53:53.137Z,95.43
2023-04-16T03:55:27.819Z,95.41
2023-04-16T03:56:30.662Z,95.41
2023-04-16T03:57:33.436Z,95.48
2023-04-16T03:59:08.267Z,95.54
2023-04-16T04:00:17.382Z,95.40
2023-04-16T04:01:20.107Z,95.36
2023-04-16T04:02:23.565Z,95.41
2023-04-16T04:04:00.682Z,95.31
2023-04-16T04:05:47.258Z,95.28
2023-04-16T04:06:50.350Z,95.37
2023-04-16T04:07:53.600Z,95.34
2023-04-16T04:09:28.415Z,95.36
2023-04-16T04:10:31.576Z,95.37
2023-04-16T04:11:34.389Z,95.33
2023-04-16T04:13:09.158Z,95.25
2023-04-16T04:14:12.253Z,95.31
2023-04-16T04:15:15.645Z,95.26
2023-04-16T04:16:50.923Z,95.33
2023-04-16T04:17:53.860Z,95.42
2023-04-16T04:18:57.080Z,95.42
2023-04-16T04:20:42.412Z,95.32
2023-04-16T04:21:45.277Z,95.28
2023-04-16T04:22:48.212Z,95.29
2023-04-16T04:24:22.794Z,95.24
2023-04-16T04:25:25.867Z,95.15
2023-04-16T04:26:28.863Z,95.17
2023-04-16T04:28:03.831Z,95.13
2023-04-16T04:29:06.688Z,95.10
2023-04-16T04:30:09.672Z,95.12
2023-04-16T04:31:44.600Z,95.11
2023-04-16T04:32:48.180Z,95.05
2023-04-16T04:33:51.556Z,94.98
2023-04-16T04:35:26.043Z,94.86
2023-04-16T04:36:28.891Z,94.79
2023-04-16T04:37:31.937Z,94.73
2023-04-16T04:39:07.461Z,94.54
2023-04-16T04:40:10.764Z,94.57
2023-04-16T04:41:13.767Z,94.60
2023-04-16T04:42:48.600Z,94.79
2023-04-16T04:43:51.582Z,94.87
2023-04-16T04:44:54.544Z,94.98
2023-04-16T04:46:29.182Z,94.95
2023-04-16T04:47:32.118Z,94.95
2023-04-16T04:48:35.390Z,94.99
2023-04-16T04:50:09.916Z,95.00
2023-04-16T04:51:12.625Z,94.98
2023-04-16T04:52:15.365Z,95.04
2023-04-16T04:53:50.000Z,95.04
2023-04-16T04:54:52.909Z,95.12
2023-04-16T04:56:09.147Z,95.03
2023-04-16T04:57:46.870Z,95.05
2023-04-16T04:58:49.792Z,94.97
2023-04-16T04:59:52.808Z,95.01
2023-04-16T05:00:17.144Z,95.01
2023-04-16T05:01:20.131Z,95.05
2023-04-16T05:02:23.539Z,95.04
2023-04-16T05:03:59.340Z,95.00
2023-04-16T05:05:02.684Z,94.99
2023-04-16T05:06:06.010Z,95.03
2023-04-16T05:07:41.885Z,94.94
2023-04-16T05:08:44.709Z,94.97
2023-04-16T05:09:47.653Z,94.92
2023-04-16T05:11:22.063Z,94.90
2023-04-16T05:12:24.904Z,94.86
2023-04-16T05:13:29.644Z,94.87
2023-04-16T05:15:04.471Z,94.94
2023-04-16T05:16:07.271Z,94.93
2023-04-16T05:17:10.572Z,94.91
2023-04-16T05:18:45.643Z,95.00
2023-04-16T05:19:49.262Z,94.92
2023-04-16T05:20:52.098Z,94.94
2023-04-16T05:22:26.549Z,94.83
2023-04-16T05:23:29.343Z,94.83
2023-04-16T05:24:32.264Z,94.84
2023-04-16T05:26:06.785Z,94.76
2023-04-16T05:27:09.794Z,94.87
2023-04-16T05:28:12.524Z,94.85
2023-04-16T05:29:47.168Z,94.87
2023-04-16T05:30:50.420Z,94.87
2023-04-16T05:31:53.571Z,94.94
2023-04-16T05:33:28.563Z,94.97
2023-04-16T05:34:31.450Z,94.94
2023-04-16T05:35:34.347Z,94.96
2023-04-16T05:37:09.126Z,94.90
2023-04-16T05:38:11.983Z,94.91
2023-04-16T05:39:15.251Z,94.85
2023-04-16T05:40:49.917Z,94.91
2023-04-16T05:41:52.630Z,94.93
2023-04-16T05:42:55.375Z,94.87
2023-04-16T05:44:29.943Z,94.89
2023-04-16T05:45:33.851Z,94.89
2023-04-16T05:46:37.082Z,94.87
2023-04-16T05:48:11.990Z,94.86
2023-04-16T05:49:15.391Z,94.84
2023-04-16T05:50:18.368Z,94.94
2023-04-16T05:51:54.731Z,94.77
2023-04-16T05:52:57.658Z,94.79
2023-04-16T05:54:00.562Z,94.73
2023-04-16T05:55:35.124Z,94.67
2023-04-16T05:56:38.016Z,94.71
2023-04-16T05:57:40.893Z,94.74
2023-04-16T05:59:16.069Z,94.65
2023-04-16T06:00:17.357Z,94.69
2023-04-16T06:01:20.378Z,94.63
2023-04-16T06:02:26.362Z,94.66
2023-04-16T06:04:02.431Z,94.68
2023-04-16T06:05:06.215Z,94.64
2023-04-16T06:06:09.426Z,94.70
2023-04-16T06:07:44.381Z,94.64
2023-04-16T06:08:47.297Z,94.66
2023-04-16T06:09:50.611Z,94.74
2023-04-16T06:11:25.425Z,94.67
2023-04-16T06:12:28.371Z,94.63
2023-04-16T06:13:31.130Z,94.64
2023-04-16T06:15:05.701Z,94.57
2023-04-16T06:16:08.569Z,94.52
2023-04-16T06:17:11.826Z,94.63
2023-04-16T06:18:46.539Z,94.66
2023-04-16T06:19:49.730Z,94.62
2023-04-16T06:20:52.495Z,94.71
2023-04-16T06:22:27.175Z,94.65
2023-04-16T06:23:30.128Z,94.65
2023-04-16T06:24:32.972Z,94.68
2023-04-16T06:26:07.838Z,94.52
2023-04-16T06:27:10.807Z,94.51
2023-04-16T06:28:13.773Z,94.47
2023-04-16T06:29:48.338Z,94.45
2023-04-16T06:30:51.135Z,94.47
2023-04-16T06:31:54.385Z,94.47
2023-04-16T06:33:29.207Z,94.42
2023-04-16T06:34:32.002Z,94.38
2023-04-16T06:35:35.090Z,94.37
2023-04-16T06:37:10.788Z,94.37
2023-04-16T06:38:13.865Z,94.40
2023-04-16T06:39:17.295Z,94.18
2023-04-16T06:40:51.984Z,94.19
2023-04-16T06:41:54.913Z,94.26
2023-04-16T06:42:57.841Z,94.32
2023-04-16T06:44:32.668Z,94.36
2023-04-16T06:45:35.566Z,94.30
2023-04-16T06:46:38.400Z,94.32
2023-04-16T06:48:13.515Z,94.34
2023-04-16T06:49:16.876Z,94.33
2023-04-16T06:50:19.684Z,94.29
2023-04-16T06:51:54.358Z,94.31
2023-04-16T06:52:57.748Z,94.38
2023-04-16T06:54:00.647Z,94.44
2023-04-16T06:55:35.472Z,94.45
2023-04-16T06:56:38.360Z,94.43
2023-04-16T06:57:43.362Z,94.37
2023-04-16T06:59:18.345Z,94.36
2023-04-16T07:00:17.712Z,94.36
2023-04-16T07:01:20.805Z,94.30
2023-04-16T07:02:24.544Z,94.35
2023-04-16T07:04:00.820Z,94.34
2023-04-16T07:05:04.206Z,94.43
2023-04-16T07:06:07.353Z,94.43
2023-04-16T07:07:42.090Z,94.44
2023-04-16T07:08:44.976Z,94.45
2023-04-16T07:09:48.058Z,94.53
2023-04-16T07:11:22.826Z,94.46
2023-04-16T07:12:28.378Z,94.50
2023-04-16T07:13:31.394Z,94.63
2023-04-16T07:15:06.320Z,94.53
2023-04-16T07:16:09.242Z,94.68
2023-04-16T07:17:12.600Z,94.65
2023-04-16T07:18:47.705Z,94.54
2023-04-16T07:19:50.811Z,94.18
2023-04-16T07:20:53.558Z,94.07
2023-04-16T07:22:28.160Z,94.08
2023-04-16T07:23:30.904Z,94.10
2023-04-16T07:24:33.791Z,94.12
2023-04-16T07:26:08.481Z,94.00
2023-04-16T07:27:11.290Z,93.90
2023-04-16T07:28:14.194Z,93.88
2023-04-16T07:29:49.645Z,93.83
2023-04-16T07:30:52.478Z,93.81
2023-04-16T07:31:55.661Z,93.88
2023-04-16T07:33:33.844Z,93.80
2023-04-16T07:34:36.769Z,93.78
2023-04-16T07:35:39.785Z,93.75
2023-04-16T07:37:14.347Z,93.62
2023-04-16T07:38:17.294Z,93.38
2023-04-16T07:39:20.282Z,93.30
2023-04-16T07:40:54.813Z,93.30
2023-04-16T07:41:57.624Z,93.40
2023-04-16T07:43:00.519Z,93.46
2023-04-16T07:44:35.090Z,93.51
2023-04-16T07:45:38.011Z,93.51
2023-04-16T07:46:52.955Z,93.59
2023-04-16T07:48:29.488Z,93.69
2023-04-16T07:49:32.452Z,93.59
2023-04-16T07:50:35.507Z,93.57
2023-04-16T07:52:10.211Z,93.46
2023-04-16T07:53:13.078Z,93.40
2023-04-16T07:54:15.925Z,93.28
2023-04-16T07:55:52.579Z,93.29
2023-04-16T07:56:55.440Z,93.15
2023-04-16T07:57:58.244Z,92.82
2023-04-16T07:59:33.515Z,93.00
2023-04-16T08:01:20.025Z,92.93
2023-04-16T08:02:23.206Z,92.71
2023-04-16T08:03:59.806Z,92.47
2023-04-16T08:05:04.325Z,92.32
2023-04-16T08:06:07.891Z,92.38
2023-04-16T08:07:42.588Z,91.62
2023-04-16T08:08:45.549Z,91.72
2023-04-16T08:09:49.041Z,91.79
2023-04-16T08:11:23.700Z,91.82
2023-04-16T08:12:26.548Z,91.88
2023-04-16T08:13:30.805Z,91.90
2023-04-16T08:15:06.342Z,91.96
2023-04-16T08:16:09.416Z,91.95
2023-04-16T08:17:12.659Z,91.96
2023-04-16T08:18:47.890Z,91.46
2023-04-16T08:19:51.329Z,91.44
2023-04-16T08:20:59.589Z,90.37
2023-04-16T08:22:34.191Z,90.57
2023-04-16T08:23:37.077Z,90.52
2023-04-16T08:24:39.967Z,90.48
2023-04-16T08:26:14.784Z,90.20
2023-04-16T08:27:25.676Z,89.44
2023-04-16T08:28:28.559Z,89.44
2023-04-16T08:30:03.158Z,89.25
2023-04-16T08:31:06.292Z,89.23
2023-04-16T08:32:09.414Z,89.36
2023-04-16T08:33:44.402Z,89.34
2023-04-16T08:34:47.258Z,89.34
2023-04-16T08:35:50.168Z,88.80
2023-04-16T08:37:24.902Z,88.10
2023-04-16T08:38:27.974Z,87.68
2023-04-16T08:39:30.995Z,87.26
2023-04-16T08:41:05.708Z,87.65
2023-04-16T08:42:08.764Z,87.78
2023-04-16T08:43:11.699Z,87.94
2023-04-16T08:44:48.560Z,87.82
2023-04-16T08:45:52.112Z,87.60
2023-04-16T08:46:55.225Z,87.46
2023-04-16T08:48:30.222Z,87.59
2023-04-16T08:49:32.973Z,87.62
2023-04-16T08:50:38.974Z,87.51
2023-04-16T08:52:15.846Z,86.63
2023-04-16T08:53:19.141Z,85.57
2023-04-16T08:54:22.215Z,85.06
2023-04-16T08:55:57.157Z,83.90
2023-04-16T08:57:00.130Z,84.09
2023-04-16T08:58:03.084Z,84.19
2023-04-16T08:59:37.893Z,84.11
2023-04-16T09:01:20.285Z,84.11
2023-04-16T09:02:23.638Z,83.62
2023-04-16T09:04:01.060Z,83.76
2023-04-16T09:05:05.369Z,83.86
2023-04-16T09:06:08.361Z,83.56
2023-04-16T09:07:42.960Z,83.47
2023-04-16T09:08:45.691Z,83.14
2023-04-16T09:09:49.221Z,82.69
2023-04-16T09:11:23.928Z,82.59
2023-04-16T09:12:26.783Z,82.89
2023-04-16T09:13:29.685Z,82.66
2023-04-16T09:15:04.362Z,82.98
2023-04-16T09:16:07.594Z,82.14
2023-04-16T09:17:10.911Z,82.55
2023-04-16T09:18:45.522Z,81.82
2023-04-16T09:19:48.565Z,82.03
2023-04-16T09:20:51.394Z,81.85
2023-04-16T09:22:25.909Z,81.64
2023-04-16T09:23:28.668Z,82.39
2023-04-16T09:24:31.379Z,82.91
2023-04-16T09:26:06.319Z,80.63
2023-04-16T09:27:09.251Z,80.80
2023-04-16T09:28:12.351Z,80.56
2023-04-16T09:29:47.402Z,79.36
2023-04-16T09:30:50.488Z,79.25
2023-04-16T09:31:53.426Z,78.97
2023-04-16T09:33:29.115Z,79.20
2023-04-16T09:34:32.240Z,79.76
2023-04-16T09:35:35.146Z,80.41
2023-04-16T09:37:09.597Z,81.05
2023-04-16T09:38:12.422Z,80.13
2023-04-16T09:39:15.619Z,78.99
2023-04-16T09:40:50.312Z,79.17
2023-04-16T09:41:53.189Z,78.54
2023-04-16T09:42:56.087Z,78.64
2023-04-16T09:44:31.119Z,77.60
2023-04-16T09:45:34.260Z,77.46
2023-04-16T09:46:37.475Z,78.68
2023-04-16T09:48:12.264Z,77.45
2023-04-16T09:49:15.909Z,77.95
2023-04-16T09:50:20.480Z,77.93
2023-04-16T09:51:55.026Z,78.41
2023-04-16T09:52:57.819Z,78.19
2023-04-16T09:54:00.593Z,78.30
2023-04-16T09:55:35.353Z,78.42
2023-04-16T09:56:38.730Z,77.63
2023-04-16T09:57:41.767Z,77.78
2023-04-16T09:59:16.934Z,77.71
2023-04-16T10:00:17.955Z,77.64
2023-04-16T10:01:24.516Z,77.71
2023-04-16T10:02:28.121Z,78.03
2023-04-16T10:04:04.315Z,78.08
2023-04-16T10:05:08.044Z,77.59
2023-04-16T10:06:11.136Z,77.56
2023-04-16T10:07:45.969Z,77.69
2023-04-16T10:08:50.145Z,77.87
2023-04-16T10:09:53.812Z,77.91
2023-04-16T10:11:28.312Z,76.56
2023-04-16T10:12:31.158Z,76.56
2023-04-16T10:13:33.950Z,75.99
2023-04-16T10:15:08.395Z,75.84
2023-04-16T10:16:11.176Z,75.61
2023-04-16T10:17:14.690Z,75.53
2023-04-16T10:18:49.654Z,74.56
2023-04-16T10:19:53.074Z,74.43
2023-04-16T10:20:57.753Z,73.77
2023-04-16T10:22:32.504Z,74.10
2023-04-16T10:23:35.341Z,74.20
2023-04-16T10:24:38.208Z,74.55
2023-04-16T10:26:12.993Z,74.83
2023-04-16T10:27:15.708Z,75.28
2023-04-16T10:28:18.675Z,74.17
2023-04-16T10:29:53.414Z,74.22
2023-04-16T10:30:56.314Z,74.06
2023-04-16T10:31:59.445Z,74.70
2023-04-16T10:33:34.256Z,75.05
2023-04-16T10:34:37.319Z,75.31
2023-04-16T10:35:40.393Z,74.03
2023-04-16T10:37:31.859Z,72.90
2023-04-16T10:38:34.705Z,72.25
2023-04-16T10:39:37.691Z,71.36
2023-04-16T10:41:12.480Z,72.90
2023-04-16T10:42:15.420Z,72.05
2023-04-16T10:43:18.352Z,72.13
2023-04-16T10:44:52.958Z,71.01
2023-04-16T10:45:55.938Z,72.06
2023-04-16T10:46:59.315Z,72.47
2023-04-16T10:48:50.308Z,72.43
2023-04-16T10:49:53.823Z,72.41
2023-04-16T10:50:57.891Z,72.72
2023-04-16T10:52:32.568Z,72.61
2023-04-16T10:53:35.499Z,71.96
2023-04-16T10:54:38.565Z,72.52
2023-04-16T10:56:13.577Z,72.95
2023-04-16T10:57:16.539Z,72.91
2023-04-16T10:58:19.444Z,73.55
2023-04-16T10:59:53.991Z,73.01
2023-04-16T11:00:17.544Z,73.01
2023-04-16T11:01:20.546Z,73.59
2023-04-16T11:02:27.269Z,74.28
2023-04-16T11:04:04.737Z,73.86
2023-04-16T11:05:09.195Z,73.39
2023-04-16T11:06:11.994Z,73.63
2023-04-16T11:07:46.686Z,73.82
2023-04-16T11:09:00.456Z,72.76
2023-04-16T11:10:03.694Z,72.35
2023-04-16T11:11:38.358Z,71.83
2023-04-16T11:12:41.490Z,71.85
2023-04-16T11:13:44.461Z,72.27
2023-04-16T11:15:19.180Z,71.65
2023-04-16T11:16:22.241Z,71.87
2023-04-16T11:17:25.230Z,72.11
2023-04-16T11:19:02.432Z,72.35
2023-04-16T11:20:05.354Z,73.16
2023-04-16T11:21:21.888Z,73.33
2023-04-16T11:22:56.640Z,73.01
2023-04-16T11:23:59.544Z,73.16
2023-04-16T11:25:02.479Z,73.23
2023-04-16T11:26:37.294Z,73.68
2023-04-16T11:27:40.254Z,72.95
2023-04-16T11:28:43.278Z,72.38
2023-04-16T11:30:18.090Z,71.96
2023-04-16T11:31:21.157Z,72.74
2023-04-16T11:32:24.514Z,72.80
2023-04-16T11:33:59.404Z,73.33
2023-04-16T11:35:02.198Z,72.76
2023-04-16T11:36:04.928Z,72.63
2023-04-16T11:37:40.275Z,73.93
2023-04-16T11:38:43.283Z,73.17
2023-04-16T11:39:46.018Z,73.13
2023-04-16T11:41:20.753Z,72.28
2023-04-16T11:42:23.868Z,71.39
2023-04-16T11:43:27.205Z,71.35
2023-04-16T11:45:02.074Z,71.15
2023-04-16T11:46:16.668Z,71.28
2023-04-16T11:47:25.821Z,70.52
2023-04-16T11:49:02.126Z,69.59
2023-04-16T11:50:05.503Z,69.66
2023-04-16T11:51:08.352Z,69.55
2023-04-16T11:52:42.896Z,69.73
2023-04-16T11:53:45.742Z,69.73
2023-04-16T11:54:52.473Z,70.13
2023-04-16T11:56:27.015Z,70.38
2023-04-16T11:57:29.875Z,70.28
2023-04-16T11:58:33.396Z,70.21
2023-04-16T12:00:18.089Z,71.24
2023-04-16T12:01:22.363Z,71.56
2023-04-16T12:02:25.693Z,71.66
2023-04-16T12:04:03.049Z,71.43
2023-04-16T12:05:07.865Z,72.52
2023-04-16T12:06:10.905Z,71.93
2023-04-16T12:07:47.823Z,71.92
2023-04-16T12:08:50.720Z,71.63
2023-04-16T12:09:53.706Z,71.22
2023-04-16T12:11:28.227Z,70.61
2023-04-16T12:12:31.654Z,70.57
2023-04-16T12:13:34.904Z,70.36
2023-04-16T12:15:09.850Z,69.83
2023-04-16T12:16:12.867Z,71.97
2023-04-16T12:17:16.665Z,72.31
2023-04-16T12:18:52.029Z,71.44
2023-04-16T12:19:55.296Z,71.35
2023-04-16T12:20:58.531Z,71.92
2023-04-16T12:22:36.005Z,71.32
2023-04-16T12:23:39.826Z,71.43
2023-04-16T12:24:42.905Z,71.37
2023-04-16T12:26:17.470Z,71.29
2023-04-16T12:27:20.270Z,71.65
2023-04-16T12:28:23.173Z,71.45
2023-04-16T12:29:57.800Z,71.69
2023-04-16T12:31:00.752Z,72.28
2023-04-16T12:32:04.032Z,73.12
2023-04-16T12:33:38.914Z,71.67
2023-04-16T12:34:54.924Z,72.04
2023-04-16T12:35:57.975Z,72.30
2023-04-16T12:37:32.711Z,72.33
2023-04-16T12:38:35.679Z,72.39
2023-04-16T12:39:38.624Z,72.45
2023-04-16T12:41:15.332Z,72.78
2023-04-16T12:42:18.228Z,72.23
2023-04-16T12:43:21.047Z,71.89
2023-04-16T12:44:55.670Z,71.88
2023-04-16T12:45:59.104Z,71.50
2023-04-16T12:47:02.203Z,71.93
2023-04-16T12:48:36.916Z,72.94
2023-04-16T12:49:40.013Z,73.89
2023-04-16T12:50:43.065Z,74.38
2023-04-16T12:52:17.786Z,74.52
2023-04-16T12:53:21.471Z,74.67
2023-04-16T12:54:24.453Z,74.52
2023-04-16T12:55:59.327Z,73.64
2023-04-16T12:57:02.165Z,73.71
2023-04-16T12:58:04.904Z,74.27
2023-04-16T12:59:41.712Z,73.93
2023-04-16T13:01:20.491Z,74.06
2023-04-16T13:02:24.161Z,74.44
2023-04-16T13:04:00.466Z,74.65
2023-04-16T13:05:06.451Z,73.99
2023-04-16T13:06:09.395Z,73.44
2023-04-16T13:07:44.162Z,74.34
2023-04-16T13:08:47.160Z,74.56
2023-04-16T13:09:50.618Z,74.62
2023-04-16T13:11:25.618Z,74.84
2023-04-16T13:12:28.441Z,74.56
2023-04-16T13:13:31.489Z,74.27
2023-04-16T13:15:05.928Z,74.76
2023-04-16T13:16:08.871Z,74.92
2023-04-16T13:17:11.982Z,75.36
2023-04-16T13:18:46.762Z,75.15
2023-04-16T13:19:50.037Z,75.21
2023-04-16T13:20:52.721Z,75.37
2023-04-16T13:22:27.556Z,75.13
2023-04-16T13:23:30.504Z,75.49
2023-04-16T13:24:33.383Z,75.56
2023-04-16T13:26:08.033Z,75.46
2023-04-16T13:27:10.904Z,75.70
2023-04-16T13:28:13.771Z,75.61
2023-04-16T13:29:48.328Z,75.94
2023-04-16T13:30:51.258Z,75.58
2023-04-16T13:31:57.626Z,75.53
2023-04-16T13:33:32.290Z,75.99
2023-04-16T13:34:35.077Z,75.91
2023-04-16T13:35:37.818Z,76.70
2023-04-16T13:37:12.526Z,76.71
2023-04-16T13:38:15.429Z,76.62
2023-04-16T13:39:18.395Z,76.50
2023-04-16T13:40:53.241Z,76.93
2023-04-16T13:41:56.238Z,75.98
2023-04-16T13:42:59.443Z,75.93
2023-04-16T13:44:36.926Z,75.71
2023-04-16T13:45:39.717Z,75.28
2023-04-16T13:46:42.642Z,75.41
2023-04-16T13:48:17.763Z,75.41
2023-04-16T13:49:20.707Z,75.66
2023-04-16T13:50:27.213Z,75.30
2023-04-16T13:52:01.694Z,75.43
2023-04-16T13:53:04.577Z,76.07
2023-04-16T13:54:07.346Z,75.76
2023-04-16T13:55:41.918Z,73.66
2023-04-16T13:56:44.882Z,73.34
2023-04-16T13:57:47.706Z,73.52
2023-04-16T13:59:22.802Z,73.91
2023-04-16T14:00:18.273Z,73.84
2023-04-16T14:01:21.455Z,74.34
2023-04-16T14:02:24.678Z,74.39
2023-04-16T14:04:00.873Z,74.80
2023-04-16T14:05:04.900Z,75.13
2023-04-16T14:06:07.833Z,76.18
2023-04-16T14:07:42.420Z,76.17
2023-04-16T14:08:45.346Z,76.32
2023-04-16T14:09:48.346Z,76.95
2023-04-16T14:11:22.900Z,75.64
2023-04-16T14:12:25.698Z,74.46
2023-04-16T14:13:28.609Z,73.60
2023-04-16T14:15:03.357Z,72.55
2023-04-16T14:16:06.519Z,72.73
2023-04-16T14:17:09.722Z,73.10
2023-04-16T14:18:44.731Z,73.78
2023-04-16T14:19:47.552Z,73.18
2023-04-16T14:20:50.339Z,73.56
2023-04-16T14:22:24.883Z,74.03
2023-04-16T14:23:27.625Z,73.80
2023-04-16T14:24:30.394Z,74.24
2023-04-16T14:26:05.033Z,73.95
2023-04-16T14:27:07.934Z,73.88
2023-04-16T14:28:10.806Z,72.95
2023-04-16T14:29:45.519Z,72.73
2023-04-16T14:30:48.522Z,73.60
2023-04-16T14:31:51.528Z,73.49
2023-04-16T14:33:27.041Z,73.74
2023-04-16T14:34:29.974Z,73.87
2023-04-16T14:35:32.853Z,73.64
2023-04-16T14:37:07.569Z,73.76
2023-04-16T14:38:10.457Z,74.17
2023-04-16T14:39:13.319Z,73.87
2023-04-16T14:40:47.953Z,74.27
2023-04-16T14:41:50.714Z,74.55
2023-04-16T14:42:53.601Z,74.67
2023-04-16T14:44:28.206Z,74.41
2023-04-16T14:45:31.039Z,74.08
2023-04-16T14:46:34.120Z,73.62
2023-04-16T14:48:09.054Z,72.88
2023-04-16T14:49:12.623Z,73.24
2023-04-16T14:50:15.579Z,73.35
2023-04-16T14:51:50.272Z,73.61
2023-04-16T14:52:53.189Z,73.38
2023-04-16T14:53:56.024Z,73.65
2023-04-16T14:55:30.633Z,73.73
2023-04-16T14:56:33.614Z,73.80
2023-04-16T14:57:36.433Z,73.97
2023-04-16T14:59:11.426Z,74.94
2023-04-16T15:00:17.071Z,74.76
2023-04-16T15:01:19.937Z,74.89
2023-04-16T15:02:23.539Z,74.52
2023-04-16T15:04:01.904Z,74.24
2023-04-16T15:05:06.282Z,74.29
2023-04-16T15:06:09.337Z,74.41
2023-04-16T15:07:46.227Z,75.03
2023-04-16T15:08:49.108Z,75.11
2023-04-16T15:09:52.558Z,74.94
2023-04-16T15:11:27.534Z,74.93
2023-04-16T15:12:30.490Z,74.74
2023-04-16T15:13:33.373Z,74.90
2023-04-16T15:15:07.841Z,74.94
2023-04-16T15:16:10.675Z,75.00
2023-04-16T15:17:13.868Z,75.18
2023-04-16T15:18:49.884Z,75.53
2023-04-16T15:19:55.837Z,75.63
2023-04-16T15:20:58.861Z,75.82
2023-04-16T15:22:36.115Z,75.99
2023-04-16T15:23:39.099Z,75.92
2023-04-16T15:24:42.036Z,75.86
2023-04-16T15:26:16.666Z,75.38
2023-04-16T15:27:19.558Z,75.67
2023-04-16T15:28:22.532Z,75.84
2023-04-16T15:29:57.186Z,75.58
2023-04-16T15:31:00.183Z,75.63
2023-04-16T15:32:03.362Z,76.29
2023-04-16T15:33:38.124Z,76.51
2023-04-16T15:34:40.914Z,76.12
2023-04-16T15:35:43.732Z,76.04
2023-04-16T15:37:18.354Z,76.42
2023-04-16T15:38:21.563Z,76.75
2023-04-16T15:39:24.517Z,77.17
2023-04-16T15:40:59.142Z,76.49
2023-04-16T15:42:07.496Z,76.09
2023-04-16T15:43:10.655Z,76.10
2023-04-16T15:44:45.621Z,75.63
2023-04-16T15:45:48.522Z,74.60
2023-04-16T15:46:51.539Z,74.20
2023-04-16T15:48:26.110Z,74.97
2023-04-16T15:49:28.984Z,75.13
2023-04-16T15:50:31.716Z,75.25
2023-04-16T15:52:06.292Z,74.95